sensor_id;sensor_type;location;lat;lon;timestamp;temperature;humidity
11091;DHT22;5599;52.210;21.046;2023-03-14T00:00:22;11.20;1.00
11091;DHT22;5599;52.210;21.046;2023-03-14T00:02:52;11.20;1.00
11091;DHT22;5599;52.210;21.046;2023-03-14T00:05:22;11.10;1.00
11091;DHT22;5599;52.210;21.046;2023-03-14T00:07:52;11.10;1.00
11091;DHT22;5599;52.210;21.046;2023-03-14T00:10:22;11.10;1.00
11091;DHT22;5599;52.210;21.046;2023-03-14T00:12:51;11.00;1.00
11091;DHT22;5599;52.210;21.046;2023-03-14T00:15:22;11.00;1.00
11091;DHT22;5599;52.210;21.046;2023-03-14T00:17:51;10.90;1.00
11091;DHT22;5599;52.210;21.046;2023-03-14T00:20:20;10.80;1.00
11091;DHT22;5599;52.210;21.046;2023-03-14T00:22:50;10.80;1.00
11091;DHT22;5599;52.210;21.046;2023-03-14T00:25:19;10.70;1.00
11091;DHT22;5599;52.210;21.046;2023-03-14T00:27:50;10.70;1.00
11091;DHT22;5599;52.210;21.046;2023-03-14T00:30:21;10.60;1.00
11091;DHT22;5599;52.210;21.046;2023-03-14T00:32:51;10.60;1.00
11091;DHT22;5599;52.210;21.046;2023-03-14T00:35:20;10.60;22.70
11091;DHT22;5599;52.210;21.046;2023-03-14T00:37:49;10.60;5.80
11091;DHT22;5599;52.210;21.046;2023-03-14T00:40:19;10.50;12.40
11091;DHT22;5599;52.210;21.046;2023-03-14T00:42:48;10.40;55.30
11091;DHT22;5599;52.210;21.046;2023-03-14T00:45:19;10.30;99.90
11091;DHT22;5599;52.210;21.046;2023-03-14T00:47:50;10.40;90.50
11091;DHT22;5599;52.210;21.046;2023-03-14T00:50:19;10.40;99.90
11091;DHT22;5599;52.210;21.046;2023-03-14T00:52:48;10.30;83.90
11091;DHT22;5599;52.210;21.046;2023-03-14T00:55:18;10.30;78.10
11091;DHT22;5599;52.210;21.046;2023-03-14T00:57:47;10.30;89.20
11091;DHT22;5599;52.210;21.046;2023-03-14T01:00:17;10.20;59.80
11091;DHT22;5599;52.210;21.046;2023-03-14T01:02:46;10.20;80.50
11091;DHT22;5599;52.210;21.046;2023-03-14T01:05:18;10.20;72.70
11091;DHT22;5599;52.210;21.046;2023-03-14T01:07:48;10.20;75.40
11091;DHT22;5599;52.210;21.046;2023-03-14T01:10:17;10.10;82.10
11091;DHT22;5599;52.210;21.046;2023-03-14T01:12:47;10.10;62.50
11091;DHT22;5599;52.210;21.046;2023-03-14T01:15:16;10.10;55.00
11091;DHT22;5599;52.210;21.046;2023-03-14T01:17:45;10.10;33.50
11091;DHT22;5599;52.210;21.046;2023-03-14T01:20:18;10.10;1.00
11091;DHT22;5599;52.210;21.046;2023-03-14T01:22:48;10.10;1.00
11091;DHT22;5599;52.210;21.046;2023-03-14T01:25:17;10.00;1.00
11091;DHT22;5599;52.210;21.046;2023-03-14T01:27:47;10.10;1.00
11091;DHT22;5599;52.210;21.046;2023-03-14T01:30:16;10.00;1.00
11091;DHT22;5599;52.210;21.046;2023-03-14T01:32:46;10.00;1.00
11091;DHT22;5599;52.210;21.046;2023-03-14T01:35:16;10.00;1.00
11091;DHT22;5599;52.210;21.046;2023-03-14T01:37:47;10.00;1.00
11091;DHT22;5599;52.210;21.046;2023-03-14T01:40:20;10.00;1.00
11091;DHT22;5599;52.210;21.046;2023-03-14T01:42:54;9.90;1.00
11091;DHT22;5599;52.210;21.046;2023-03-14T01:46:02;9.90;1.00
11091;DHT22;5599;52.210;21.046;2023-03-14T01:48:45;9.80;1.00
11091;DHT22;5599;52.210;21.046;2023-03-14T01:51:20;9.80;1.00
11091;DHT22;5599;52.210;21.046;2023-03-14T01:53:52;9.80;1.00
11091;DHT22;5599;52.210;21.046;2023-03-14T01:56:23;9.90;1.00
11091;DHT22;5599;52.210;21.046;2023-03-14T01:58:53;9.90;1.00
11091;DHT22;5599;52.210;21.046;2023-03-14T02:05:17;9.90;1.00
11091;DHT22;5599;52.210;21.046;2023-03-14T02:07:55;9.90;1.00
11091;DHT22;5599;52.210;21.046;2023-03-14T02:10:37;9.80;1.00
11091;DHT22;5599;52.210;21.046;2023-03-14T02:13:09;9.80;1.00
11091;DHT22;5599;52.210;21.046;2023-03-14T02:15:58;9.70;1.00
11091;DHT22;5599;52.210;21.046;2023-03-14T02:18:57;9.70;1.00
11091;DHT22;5599;52.210;21.046;2023-03-14T02:22:06;9.70;1.00
11091;DHT22;5599;52.210;21.046;2023-03-14T02:24:49;9.70;1.00
11091;DHT22;5599;52.210;21.046;2023-03-14T02:27:21;9.60;1.00
11091;DHT22;5599;52.210;21.046;2023-03-14T02:29:52;9.60;1.00
11091;DHT22;5599;52.210;21.046;2023-03-14T02:32:23;9.60;1.00
11091;DHT22;5599;52.210;21.046;2023-03-14T02:34:55;9.50;1.00
11091;DHT22;5599;52.210;21.046;2023-03-14T02:37:30;9.50;1.00
11091;DHT22;5599;52.210;21.046;2023-03-14T02:40:01;9.50;1.00
11091;DHT22;5599;52.210;21.046;2023-03-14T02:42:35;9.50;1.00
11091;DHT22;5599;52.210;21.046;2023-03-14T02:45:28;9.40;1.00
11091;DHT22;5599;52.210;21.046;2023-03-14T02:48:05;9.40;1.00
11091;DHT22;5599;52.210;21.046;2023-03-14T02:50:38;9.40;1.00
11091;DHT22;5599;52.210;21.046;2023-03-14T02:53:08;9.30;1.00
11091;DHT22;5599;52.210;21.046;2023-03-14T02:55:37;9.30;1.00
11091;DHT22;5599;52.210;21.046;2023-03-14T02:58:12;9.40;1.00
11091;DHT22;5599;52.210;21.046;2023-03-14T03:00:43;9.40;1.00
11091;DHT22;5599;52.210;21.046;2023-03-14T03:03:13;9.40;1.00
11091;DHT22;5599;52.210;21.046;2023-03-14T03:05:42;9.30;1.00
11091;DHT22;5599;52.210;21.046;2023-03-14T03:08:12;9.30;1.00
11091;DHT22;5599;52.210;21.046;2023-03-14T03:10:41;9.30;1.00
11091;DHT22;5599;52.210;21.046;2023-03-14T03:13:12;9.20;1.00
11091;DHT22;5599;52.210;21.046;2023-03-14T03:15:42;9.20;1.00
11091;DHT22;5599;52.210;21.046;2023-03-14T03:18:12;9.30;1.00
11091;DHT22;5599;52.210;21.046;2023-03-14T03:20:42;9.30;1.00
11091;DHT22;5599;52.210;21.046;2023-03-14T03:23:12;9.30;1.00
11091;DHT22;5599;52.210;21.046;2023-03-14T03:25:41;9.20;1.00
11091;DHT22;5599;52.210;21.046;2023-03-14T03:28:12;9.20;1.00
11091;DHT22;5599;52.210;21.046;2023-03-14T03:30:42;9.10;1.00
11091;DHT22;5599;52.210;21.046;2023-03-14T03:33:12;9.10;1.00
11091;DHT22;5599;52.210;21.046;2023-03-14T03:35:45;9.10;1.00
11091;DHT22;5599;52.210;21.046;2023-03-14T03:38:19;9.00;1.00
11091;DHT22;5599;52.210;21.046;2023-03-14T03:40:51;9.00;1.00
11091;DHT22;5599;52.210;21.046;2023-03-14T03:43:25;9.00;1.00
11091;DHT22;5599;52.210;21.046;2023-03-14T03:45:55;9.00;1.00
11091;DHT22;5599;52.210;21.046;2023-03-14T03:48:24;8.90;1.00
11091;DHT22;5599;52.210;21.046;2023-03-14T03:50:54;8.80;1.00
11091;DHT22;5599;52.210;21.046;2023-03-14T03:53:23;8.80;1.00
11091;DHT22;5599;52.210;21.046;2023-03-14T03:56:05;8.70;1.00
11091;DHT22;5599;52.210;21.046;2023-03-14T03:58:36;8.70;1.00
11091;DHT22;5599;52.210;21.046;2023-03-14T04:01:07;8.70;1.00
11091;DHT22;5599;52.210;21.046;2023-03-14T04:03:37;8.60;1.00
11091;DHT22;5599;52.210;21.046;2023-03-14T04:06:08;8.60;20.60
11091;DHT22;5599;52.210;21.046;2023-03-14T04:08:40;8.60;78.50
11091;DHT22;5599;52.210;21.046;2023-03-14T04:11:13;8.40;99.90
11091;DHT22;5599;52.210;21.046;2023-03-14T04:14:05;8.50;99.90
11091;DHT22;5599;52.210;21.046;2023-03-14T04:16:35;8.40;99.90
11091;DHT22;5599;52.210;21.046;2023-03-14T04:19:10;8.30;99.90
11091;DHT22;5599;52.210;21.046;2023-03-14T04:21:40;8.20;99.90
11091;DHT22;5599;52.210;21.046;2023-03-14T04:24:18;8.20;99.90
11091;DHT22;5599;52.210;21.046;2023-03-14T04:26:49;8.20;99.90
11091;DHT22;5599;52.210;21.046;2023-03-14T04:29:20;8.10;1.00
11091;DHT22;5599;52.210;21.046;2023-03-14T04:31:49;8.10;99.90
11091;DHT22;5599;52.210;21.046;2023-03-14T04:34:18;8.20;99.90
11091;DHT22;5599;52.210;21.046;2023-03-14T04:36:52;8.20;99.90
11091;DHT22;5599;52.210;21.046;2023-03-14T04:39:29;8.30;99.90
11091;DHT22;5599;52.210;21.046;2023-03-14T04:42:25;8.30;99.90
11091;DHT22;5599;52.210;21.046;2023-03-14T04:44:56;8.20;99.90
11091;DHT22;5599;52.210;21.046;2023-03-14T04:47:28;8.20;99.90
11091;DHT22;5599;52.210;21.046;2023-03-14T04:49:58;8.20;99.90
11091;DHT22;5599;52.210;21.046;2023-03-14T04:52:28;8.30;99.50
11091;DHT22;5599;52.210;21.046;2023-03-14T04:54:59;8.30;45.30
11091;DHT22;5599;52.210;21.046;2023-03-14T04:57:29;8.40;26.00
11091;DHT22;5599;52.210;21.046;2023-03-14T05:00:00;8.40;5.30
11091;DHT22;5599;52.210;21.046;2023-03-14T05:02:51;8.40;1.00
11091;DHT22;5599;52.210;21.046;2023-03-14T05:05:46;8.40;17.80
11091;DHT22;5599;52.210;21.046;2023-03-14T05:08:35;8.40;1.00
11091;DHT22;5599;52.210;21.046;2023-03-14T05:11:17;8.60;1.00
11091;DHT22;5599;52.210;21.046;2023-03-14T05:14:12;8.60;1.00
11091;DHT22;5599;52.210;21.046;2023-03-14T05:17:01;8.70;1.00
11091;DHT22;5599;52.210;21.046;2023-03-14T05:19:40;8.80;1.00
11091;DHT22;5599;52.210;21.046;2023-03-14T05:22:10;8.70;1.00
11091;DHT22;5599;52.210;21.046;2023-03-14T05:24:53;8.70;1.00
11091;DHT22;5599;52.210;21.046;2023-03-14T05:27:44;8.70;1.00
11091;DHT22;5599;52.210;21.046;2023-03-14T05:30:32;8.80;1.00
11091;DHT22;5599;52.210;21.046;2023-03-14T05:33:32;8.90;1.00
11091;DHT22;5599;52.210;21.046;2023-03-14T05:36:34;8.90;1.00
11091;DHT22;5599;52.210;21.046;2023-03-14T05:39:29;9.00;1.00
11091;DHT22;5599;52.210;21.046;2023-03-14T05:42:22;9.00;1.00
11091;DHT22;5599;52.210;21.046;2023-03-14T05:45:23;9.10;1.00
11091;DHT22;5599;52.210;21.046;2023-03-14T05:48:22;9.10;1.00
11091;DHT22;5599;52.210;21.046;2023-03-14T05:51:06;9.20;1.00
11091;DHT22;5599;52.210;21.046;2023-03-14T05:53:58;9.10;1.00
11091;DHT22;5599;52.210;21.046;2023-03-14T05:56:44;9.20;1.00
11091;DHT22;5599;52.210;21.046;2023-03-14T05:59:29;9.40;1.00
11091;DHT22;5599;52.210;21.046;2023-03-14T06:02:16;9.70;1.00
11091;DHT22;5599;52.210;21.046;2023-03-14T06:04:56;11.10;1.00
11091;DHT22;5599;52.210;21.046;2023-03-14T06:07:27;12.30;99.90
11091;DHT22;5599;52.210;21.046;2023-03-14T06:09:56;13.60;99.90
11091;DHT22;5599;52.210;21.046;2023-03-14T06:12:27;14.60;29.10
11091;DHT22;5599;52.210;21.046;2023-03-14T06:14:57;15.60;1.00
11091;DHT22;5599;52.210;21.046;2023-03-14T06:17:27;16.80;1.00
11091;DHT22;5599;52.210;21.046;2023-03-14T06:20:08;17.70;1.00
11091;DHT22;5599;52.210;21.046;2023-03-14T06:22:40;18.20;99.90
11091;DHT22;5599;52.210;21.046;2023-03-14T06:25:11;17.60;1.00
11091;DHT22;5599;52.210;21.046;2023-03-14T06:27:45;16.40;1.00
11091;DHT22;5599;52.210;21.046;2023-03-14T06:30:16;15.80;1.00
11091;DHT22;5599;52.210;21.046;2023-03-14T06:32:45;15.40;15.70
11091;DHT22;5599;52.210;21.046;2023-03-14T06:35:17;14.80;99.90
11091;DHT22;5599;52.210;21.046;2023-03-14T06:37:48;14.40;99.90
11091;DHT22;5599;52.210;21.046;2023-03-14T06:40:18;13.90;99.90
11091;DHT22;5599;52.210;21.046;2023-03-14T06:43:00;13.60;99.90
11091;DHT22;5599;52.210;21.046;2023-03-14T06:45:31;14.10;99.90
11091;DHT22;5599;52.210;21.046;2023-03-14T06:48:03;14.90;99.90
11091;DHT22;5599;52.210;21.046;2023-03-14T06:50:39;14.90;99.90
11091;DHT22;5599;52.210;21.046;2023-03-14T06:53:10;14.80;99.90
11091;DHT22;5599;52.210;21.046;2023-03-14T06:55:42;14.70;99.90
11091;DHT22;5599;52.210;21.046;2023-03-14T06:58:15;14.60;99.90
11091;DHT22;5599;52.210;21.046;2023-03-14T07:00:45;14.90;1.00
11091;DHT22;5599;52.210;21.046;2023-03-14T07:03:20;15.30;99.90
11091;DHT22;5599;52.210;21.046;2023-03-14T07:05:51;15.60;1.00
11091;DHT22;5599;52.210;21.046;2023-03-14T07:08:23;16.40;99.90
11091;DHT22;5599;52.210;21.046;2023-03-14T07:10:52;17.40;1.00
11091;DHT22;5599;52.210;21.046;2023-03-14T07:13:22;18.40;99.90
11091;DHT22;5599;52.210;21.046;2023-03-14T07:16:00;18.50;1.00
11091;DHT22;5599;52.210;21.046;2023-03-14T07:18:29;18.50;1.00
11091;DHT22;5599;52.210;21.046;2023-03-14T07:20:59;18.20;99.90
11091;DHT22;5599;52.210;21.046;2023-03-14T07:23:30;17.60;99.90
11091;DHT22;5599;52.210;21.046;2023-03-14T07:25:59;17.00;99.90
11091;DHT22;5599;52.210;21.046;2023-03-14T07:28:30;16.60;1.00
11091;DHT22;5599;52.210;21.046;2023-03-14T07:31:19;16.30;99.90
11091;DHT22;5599;52.210;21.046;2023-03-14T07:33:49;16.10;99.90
11091;DHT22;5599;52.210;21.046;2023-03-14T07:36:20;16.10;99.90
11091;DHT22;5599;52.210;21.046;2023-03-14T07:38:58;16.30;99.90
11091;DHT22;5599;52.210;21.046;2023-03-14T07:41:47;16.70;99.90
11091;DHT22;5599;52.210;21.046;2023-03-14T07:44:39;16.90;99.90
11091;DHT22;5599;52.210;21.046;2023-03-14T07:47:08;17.00;1.00
11091;DHT22;5599;52.210;21.046;2023-03-14T07:49:39;17.00;1.00
11091;DHT22;5599;52.210;21.046;2023-03-14T07:52:08;17.30;99.90
11091;DHT22;5599;52.210;21.046;2023-03-14T07:54:39;17.70;41.40
11091;DHT22;5599;52.210;21.046;2023-03-14T07:57:08;18.00;1.00
11091;DHT22;5599;52.210;21.046;2023-03-14T07:59:39;18.10;1.00
11091;DHT22;5599;52.210;21.046;2023-03-14T08:02:10;18.00;1.00
11091;DHT22;5599;52.210;21.046;2023-03-14T08:04:41;17.90;99.90
11091;DHT22;5599;52.210;21.046;2023-03-14T08:07:10;17.60;1.00
11091;DHT22;5599;52.210;21.046;2023-03-14T08:09:41;17.60;99.90
11091;DHT22;5599;52.210;21.046;2023-03-14T08:12:10;17.60;99.90
11091;DHT22;5599;52.210;21.046;2023-03-14T08:14:40;17.60;99.90
11091;DHT22;5599;52.210;21.046;2023-03-14T08:17:10;17.90;1.00
11091;DHT22;5599;52.210;21.046;2023-03-14T08:19:41;18.00;1.00
11091;DHT22;5599;52.210;21.046;2023-03-14T08:22:10;17.90;99.90
11091;DHT22;5599;52.210;21.046;2023-03-14T08:24:41;17.40;1.00
11091;DHT22;5599;52.210;21.046;2023-03-14T08:27:10;17.30;99.90
11091;DHT22;5599;52.210;21.046;2023-03-14T08:29:42;17.30;50.70
11091;DHT22;5599;52.210;21.046;2023-03-14T08:32:11;17.30;1.00
11091;DHT22;5599;52.210;21.046;2023-03-14T08:34:41;17.30;18.00
11091;DHT22;5599;52.210;21.046;2023-03-14T08:37:10;17.30;1.00
11091;DHT22;5599;52.210;21.046;2023-03-14T08:39:54;17.50;1.00
11091;DHT22;5599;52.210;21.046;2023-03-14T08:42:24;17.40;1.00
11091;DHT22;5599;52.210;21.046;2023-03-14T08:44:54;17.60;99.90
11091;DHT22;5599;52.210;21.046;2023-03-14T08:47:23;17.50;1.00
11091;DHT22;5599;52.210;21.046;2023-03-14T08:49:53;17.50;1.00
11091;DHT22;5599;52.210;21.046;2023-03-14T08:52:23;17.70;1.00
11091;DHT22;5599;52.210;21.046;2023-03-14T08:54:54;17.80;1.00
11091;DHT22;5599;52.210;21.046;2023-03-14T08:57:23;17.80;1.00
11091;DHT22;5599;52.210;21.046;2023-03-14T08:59:55;18.00;1.00
11091;DHT22;5599;52.210;21.046;2023-03-14T09:02:25;18.10;25.50
11091;DHT22;5599;52.210;21.046;2023-03-14T09:04:55;18.50;99.90
11091;DHT22;5599;52.210;21.046;2023-03-14T09:07:24;18.80;99.90
11091;DHT22;5599;52.210;21.046;2023-03-14T09:09:55;19.10;99.90
11091;DHT22;5599;52.210;21.046;2023-03-14T09:12:24;18.90;1.00
11091;DHT22;5599;52.210;21.046;2023-03-14T09:14:54;19.10;99.90
11091;DHT22;5599;52.210;21.046;2023-03-14T09:17:23;19.60;99.90
11091;DHT22;5599;52.210;21.046;2023-03-14T09:19:52;19.80;99.90
11091;DHT22;5599;52.210;21.046;2023-03-14T09:22:22;20.10;99.90
11091;DHT22;5599;52.210;21.046;2023-03-14T09:24:51;20.50;99.90
11091;DHT22;5599;52.210;21.046;2023-03-14T09:27:22;20.50;87.40
11091;DHT22;5599;52.210;21.046;2023-03-14T09:29:51;20.10;86.50
11091;DHT22;5599;52.210;21.046;2023-03-14T09:32:21;19.80;99.90
11091;DHT22;5599;52.210;21.046;2023-03-14T09:34:50;19.50;99.90
11091;DHT22;5599;52.210;21.046;2023-03-14T09:37:20;19.50;99.90
11091;DHT22;5599;52.210;21.046;2023-03-14T09:39:49;19.40;99.90
11091;DHT22;5599;52.210;21.046;2023-03-14T09:42:22;19.50;99.90
11091;DHT22;5599;52.210;21.046;2023-03-14T09:44:56;19.60;1.00
11091;DHT22;5599;52.210;21.046;2023-03-14T09:47:26;19.70;1.00
11091;DHT22;5599;52.210;21.046;2023-03-14T09:49:56;19.70;99.90
11091;DHT22;5599;52.210;21.046;2023-03-14T09:52:30;19.80;1.00
11091;DHT22;5599;52.210;21.046;2023-03-14T09:55:02;20.00;99.90
11091;DHT22;5599;52.210;21.046;2023-03-14T09:57:34;20.00;99.90
11091;DHT22;5599;52.210;21.046;2023-03-14T10:00:10;19.80;1.00
11091;DHT22;5599;52.210;21.046;2023-03-14T10:02:47;19.60;99.90
11091;DHT22;5599;52.210;21.046;2023-03-14T10:05:20;19.50;1.00
11091;DHT22;5599;52.210;21.046;2023-03-14T10:07:50;19.50;99.90
11091;DHT22;5599;52.210;21.046;2023-03-14T10:10:21;19.60;99.90
11091;DHT22;5599;52.210;21.046;2023-03-14T10:12:57;19.70;99.90
11091;DHT22;5599;52.210;21.046;2023-03-14T10:15:30;19.60;1.00
11091;DHT22;5599;52.210;21.046;2023-03-14T10:18:02;19.20;99.90
11091;DHT22;5599;52.210;21.046;2023-03-14T10:20:38;18.80;99.90
11091;DHT22;5599;52.210;21.046;2023-03-14T10:23:24;18.50;1.00
11091;DHT22;5599;52.210;21.046;2023-03-14T10:26:03;18.40;99.90
11091;DHT22;5599;52.210;21.046;2023-03-14T10:28:38;18.20;1.00
11091;DHT22;5599;52.210;21.046;2023-03-14T10:31:08;18.00;1.00
11091;DHT22;5599;52.210;21.046;2023-03-14T10:33:38;18.00;99.90
11091;DHT22;5599;52.210;21.046;2023-03-14T10:36:19;18.10;99.90
11091;DHT22;5599;52.210;21.046;2023-03-14T10:38:51;18.00;1.00
11091;DHT22;5599;52.210;21.046;2023-03-14T10:41:27;17.90;99.90
11091;DHT22;5599;52.210;21.046;2023-03-14T10:44:02;17.90;1.00
11091;DHT22;5599;52.210;21.046;2023-03-14T10:46:32;18.00;1.00
11091;DHT22;5599;52.210;21.046;2023-03-14T10:49:26;18.30;99.90
11091;DHT22;5599;52.210;21.046;2023-03-14T10:52:00;18.40;99.90
11091;DHT22;5599;52.210;21.046;2023-03-14T10:54:30;18.40;1.00
11091;DHT22;5599;52.210;21.046;2023-03-14T10:57:01;18.20;1.00
11091;DHT22;5599;52.210;21.046;2023-03-14T10:59:38;18.20;95.40
11091;DHT22;5599;52.210;21.046;2023-03-14T11:02:22;18.10;99.90
11091;DHT22;5599;52.210;21.046;2023-03-14T11:05:04;18.00;1.00
11091;DHT22;5599;52.210;21.046;2023-03-14T11:07:40;17.80;57.70
11091;DHT22;5599;52.210;21.046;2023-03-14T11:10:18;17.70;1.00
11091;DHT22;5599;52.210;21.046;2023-03-14T11:13:00;17.60;1.00
11091;DHT22;5599;52.210;21.046;2023-03-14T11:15:40;17.50;1.00
11091;DHT22;5599;52.210;21.046;2023-03-14T11:21:13;17.50;1.00
11091;DHT22;5599;52.210;21.046;2023-03-14T11:23:54;17.50;99.90
11091;DHT22;5599;52.210;21.046;2023-03-14T11:26:33;17.40;1.00
11091;DHT22;5599;52.210;21.046;2023-03-14T11:29:17;17.50;99.90
11091;DHT22;5599;52.210;21.046;2023-03-14T11:31:49;17.30;99.90
11091;DHT22;5599;52.210;21.046;2023-03-14T11:34:27;17.30;1.00
11091;DHT22;5599;52.210;21.046;2023-03-14T11:37:00;17.30;1.00
11091;DHT22;5599;52.210;21.046;2023-03-14T11:39:37;17.20;1.00
11091;DHT22;5599;52.210;21.046;2023-03-14T11:42:12;17.10;1.00
11091;DHT22;5599;52.210;21.046;2023-03-14T11:44:43;17.10;99.90
11091;DHT22;5599;52.210;21.046;2023-03-14T11:47:18;17.10;1.00
11091;DHT22;5599;52.210;21.046;2023-03-14T11:49:50;17.10;1.00
11091;DHT22;5599;52.210;21.046;2023-03-14T11:52:25;17.10;1.00
11091;DHT22;5599;52.210;21.046;2023-03-14T11:55:00;17.10;1.00
11091;DHT22;5599;52.210;21.046;2023-03-14T11:57:32;16.90;12.70
11091;DHT22;5599;52.210;21.046;2023-03-14T12:00:05;16.80;99.90
11091;DHT22;5599;52.210;21.046;2023-03-14T12:02:50;16.70;1.00
11091;DHT22;5599;52.210;21.046;2023-03-14T12:05:34;16.60;1.00
11091;DHT22;5599;52.210;21.046;2023-03-14T12:11:35;16.60;1.00
11091;DHT22;5599;52.210;21.046;2023-03-14T12:14:20;16.60;1.00
11091;DHT22;5599;52.210;21.046;2023-03-14T12:16:53;16.70;1.00
11091;DHT22;5599;52.210;21.046;2023-03-14T12:19:33;17.00;1.00
11091;DHT22;5599;52.210;21.046;2023-03-14T12:22:21;17.20;1.00
11091;DHT22;5599;52.210;21.046;2023-03-14T12:24:55;17.40;1.00
11091;DHT22;5599;52.210;21.046;2023-03-14T12:27:45;17.50;1.00
11091;DHT22;5599;52.210;21.046;2023-03-14T12:30:27;17.30;1.00
11091;DHT22;5599;52.210;21.046;2023-03-14T12:36:04;17.10;1.00
11091;DHT22;5599;52.210;21.046;2023-03-14T12:41:51;17.00;1.00
11091;DHT22;5599;52.210;21.046;2023-03-14T12:44:39;16.80;1.00
11091;DHT22;5599;52.210;21.046;2023-03-14T12:47:50;16.70;1.00
11091;DHT22;5599;52.210;21.046;2023-03-14T12:50:33;16.60;1.00
11091;DHT22;5599;52.210;21.046;2023-03-14T12:56:16;16.40;1.00
11091;DHT22;5599;52.210;21.046;2023-03-14T12:58:56;16.30;1.00
11091;DHT22;5599;52.210;21.046;2023-03-14T13:01:29;16.20;1.00
11091;DHT22;5599;52.210;21.046;2023-03-14T13:04:03;16.00;62.30
11091;DHT22;5599;52.210;21.046;2023-03-14T13:06:51;15.90;99.90
11091;DHT22;5599;52.210;21.046;2023-03-14T13:12:34;15.50;1.00
11091;DHT22;5599;52.210;21.046;2023-03-14T13:15:18;15.40;1.00
11091;DHT22;5599;52.210;21.046;2023-03-14T13:17:49;15.20;1.00
11091;DHT22;5599;52.210;21.046;2023-03-14T13:20:23;15.10;99.90
11091;DHT22;5599;52.210;21.046;2023-03-14T13:22:54;15.00;99.90
11091;DHT22;5599;52.210;21.046;2023-03-14T13:25:23;14.90;99.90
11091;DHT22;5599;52.210;21.046;2023-03-14T13:27:54;14.80;99.90
11091;DHT22;5599;52.210;21.046;2023-03-14T13:30:26;14.70;99.90
11091;DHT22;5599;52.210;21.046;2023-03-14T13:32:56;14.70;99.90
11091;DHT22;5599;52.210;21.046;2023-03-14T13:35:27;14.60;1.00
11091;DHT22;5599;52.210;21.046;2023-03-14T13:37:59;14.50;99.90
11091;DHT22;5599;52.210;21.046;2023-03-14T13:40:45;14.50;99.90
11091;DHT22;5599;52.210;21.046;2023-03-14T13:43:18;14.30;99.90
11091;DHT22;5599;52.210;21.046;2023-03-14T13:45:54;14.30;1.00
11091;DHT22;5599;52.210;21.046;2023-03-14T13:48:27;14.20;99.90
11091;DHT22;5599;52.210;21.046;2023-03-14T13:51:00;14.00;1.00
11091;DHT22;5599;52.210;21.046;2023-03-14T13:53:30;13.90;1.00
11091;DHT22;5599;52.210;21.046;2023-03-14T13:56:02;13.80;1.00
11091;DHT22;5599;52.210;21.046;2023-03-14T13:58:38;13.80;99.90
11091;DHT22;5599;52.210;21.046;2023-03-14T14:01:14;13.80;99.90
11091;DHT22;5599;52.210;21.046;2023-03-14T14:03:46;13.70;99.90
11091;DHT22;5599;52.210;21.046;2023-03-14T14:06:31;13.60;99.90
11091;DHT22;5599;52.210;21.046;2023-03-14T14:09:04;13.60;99.90
11091;DHT22;5599;52.210;21.046;2023-03-14T14:11:42;13.50;1.00
11091;DHT22;5599;52.210;21.046;2023-03-14T14:14:35;13.50;1.00
11091;DHT22;5599;52.210;21.046;2023-03-14T14:17:11;13.30;99.90
11091;DHT22;5599;52.210;21.046;2023-03-14T14:19:42;13.40;99.90
11091;DHT22;5599;52.210;21.046;2023-03-14T14:22:13;13.40;99.90
11091;DHT22;5599;52.210;21.046;2023-03-14T14:24:42;13.30;99.90
11091;DHT22;5599;52.210;21.046;2023-03-14T14:27:14;13.30;1.00
11091;DHT22;5599;52.210;21.046;2023-03-14T14:29:57;13.30;1.00
11091;DHT22;5599;52.210;21.046;2023-03-14T14:32:27;13.20;1.00
11091;DHT22;5599;52.210;21.046;2023-03-14T14:35:03;13.10;99.90
11091;DHT22;5599;52.210;21.046;2023-03-14T14:37:34;13.10;99.90
11091;DHT22;5599;52.210;21.046;2023-03-14T14:40:14;13.10;1.00
11091;DHT22;5599;52.210;21.046;2023-03-14T14:42:45;13.00;1.00
11091;DHT22;5599;52.210;21.046;2023-03-14T14:45:19;12.90;1.00
11091;DHT22;5599;52.210;21.046;2023-03-14T14:47:51;12.80;99.90
11091;DHT22;5599;52.210;21.046;2023-03-14T14:50:28;12.80;99.90
11091;DHT22;5599;52.210;21.046;2023-03-14T14:52:59;12.90;1.00
11091;DHT22;5599;52.210;21.046;2023-03-14T14:55:31;12.80;99.90
11091;DHT22;5599;52.210;21.046;2023-03-14T14:58:16;12.80;1.00
11091;DHT22;5599;52.210;21.046;2023-03-14T15:00:57;12.80;99.90
11091;DHT22;5599;52.210;21.046;2023-03-14T15:03:29;12.80;99.90
11091;DHT22;5599;52.210;21.046;2023-03-14T15:05:59;12.70;1.00
11091;DHT22;5599;52.210;21.046;2023-03-14T15:08:28;12.60;99.90
11091;DHT22;5599;52.210;21.046;2023-03-14T15:10:58;12.60;1.00
11091;DHT22;5599;52.210;21.046;2023-03-14T15:13:28;12.60;99.90
11091;DHT22;5599;52.210;21.046;2023-03-14T15:15:58;12.50;1.00
11091;DHT22;5599;52.210;21.046;2023-03-14T15:18:29;12.50;1.00
11091;DHT22;5599;52.210;21.046;2023-03-14T15:20:59;12.50;1.00
11091;DHT22;5599;52.210;21.046;2023-03-14T15:23:29;12.50;1.00
11091;DHT22;5599;52.210;21.046;2023-03-14T15:26:02;12.40;1.00
11091;DHT22;5599;52.210;21.046;2023-03-14T15:28:32;12.30;99.90
11091;DHT22;5599;52.210;21.046;2023-03-14T15:31:03;12.30;1.00
11091;DHT22;5599;52.210;21.046;2023-03-14T15:33:34;12.20;99.90
11091;DHT22;5599;52.210;21.046;2023-03-14T15:36:04;12.20;1.00
11091;DHT22;5599;52.210;21.046;2023-03-14T15:38:33;12.10;99.90
11091;DHT22;5599;52.210;21.046;2023-03-14T15:41:03;12.10;1.00
11091;DHT22;5599;52.210;21.046;2023-03-14T15:43:36;12.00;1.00
11091;DHT22;5599;52.210;21.046;2023-03-14T15:46:08;12.10;99.90
11091;DHT22;5599;52.210;21.046;2023-03-14T15:48:38;12.00;1.00
11091;DHT22;5599;52.210;21.046;2023-03-14T15:51:08;12.00;1.00
11091;DHT22;5599;52.210;21.046;2023-03-14T15:53:38;12.00;1.00
11091;DHT22;5599;52.210;21.046;2023-03-14T15:56:11;11.90;1.00
11091;DHT22;5599;52.210;21.046;2023-03-14T15:58:41;11.90;99.90
11091;DHT22;5599;52.210;21.046;2023-03-14T16:01:16;11.90;1.00
11091;DHT22;5599;52.210;21.046;2023-03-14T16:03:46;11.90;96.70
11091;DHT22;5599;52.210;21.046;2023-03-14T16:06:17;11.90;1.00
11091;DHT22;5599;52.210;21.046;2023-03-14T16:08:47;12.00;1.00
11091;DHT22;5599;52.210;21.046;2023-03-14T16:11:17;11.90;99.90
11091;DHT22;5599;52.210;21.046;2023-03-14T16:13:49;11.90;99.90
11091;DHT22;5599;52.210;21.046;2023-03-14T16:16:20;11.80;99.90
11091;DHT22;5599;52.210;21.046;2023-03-14T16:18:50;11.80;1.00
11091;DHT22;5599;52.210;21.046;2023-03-14T16:21:20;11.90;31.00
11091;DHT22;5599;52.210;21.046;2023-03-14T16:23:50;11.80;1.00
11091;DHT22;5599;52.210;21.046;2023-03-14T16:26:20;11.80;1.00
11091;DHT22;5599;52.210;21.046;2023-03-14T16:28:49;11.90;99.90
11091;DHT22;5599;52.210;21.046;2023-03-14T16:31:21;11.80;99.90
11091;DHT22;5599;52.210;21.046;2023-03-14T16:33:53;11.70;99.90
11091;DHT22;5599;52.210;21.046;2023-03-14T16:36:22;11.70;1.00
11091;DHT22;5599;52.210;21.046;2023-03-14T16:38:52;11.70;99.90
11091;DHT22;5599;52.210;21.046;2023-03-14T16:41:21;11.70;99.90
11091;DHT22;5599;52.210;21.046;2023-03-14T16:43:53;11.60;1.00
11091;DHT22;5599;52.210;21.046;2023-03-14T16:46:27;11.70;99.90
11091;DHT22;5599;52.210;21.046;2023-03-14T16:48:57;11.60;99.90